sensor_id;sensor_type;location;lat;lon;timestamp;P1;durP1;ratioP1;P2;durP2;ratioP2
22476;SDS011;65006;51.698;-0.292;2023-03-12T00:00:31;27.58;;;13.23;;
22476;SDS011;65006;51.698;-0.292;2023-03-12T00:03:01;30.77;;;14.00;;
22476;SDS011;65006;51.698;-0.292;2023-03-12T00:05:31;25.27;;;11.48;;
22476;SDS011;65006;51.698;-0.292;2023-03-12T00:07:59;25.20;;;12.68;;
22476;SDS011;65006;51.698;-0.292;2023-03-12T00:10:28;26.58;;;11.38;;
22476;SDS011;65006;51.698;-0.292;2023-03-12T00:12:57;24.23;;;11.40;;
22476;SDS011;65006;51.698;-0.292;2023-03-12T00:15:26;23.15;;;11.23;;
22476;SDS011;65006;51.698;-0.292;2023-03-12T00:18:15;23.60;;;11.82;;
22476;SDS011;65006;51.698;-0.292;2023-03-12T00:21:07;25.20;;;13.02;;
22476;SDS011;65006;51.698;-0.292;2023-03-12T00:24:02;25.33;;;11.07;;
22476;SDS011;65006;51.698;-0.292;2023-03-12T00:26:30;25.98;;;11.40;;
22476;SDS011;65006;51.698;-0.292;2023-03-12T00:28:57;26.90;;;11.63;;
22476;SDS011;65006;51.698;-0.292;2023-03-12T00:31:28;22.20;;;10.25;;
22476;SDS011;65006;51.698;-0.292;2023-03-12T00:34:00;25.63;;;11.35;;
22476;SDS011;65006;51.698;-0.292;2023-03-12T00:36:46;24.98;;;10.63;;
22476;SDS011;65006;51.698;-0.292;2023-03-12T00:39:20;24.25;;;9.73;;
22476;SDS011;65006;51.698;-0.292;2023-03-12T00:41:48;23.38;;;9.98;;
22476;SDS011;65006;51.698;-0.292;2023-03-12T00:46:55;24.58;;;10.57;;
22476;SDS011;65006;51.698;-0.292;2023-03-12T00:49:25;22.77;;;10.30;;
22476;SDS011;65006;51.698;-0.292;2023-03-12T00:52:02;24.85;;;10.10;;
22476;SDS011;65006;51.698;-0.292;2023-03-12T00:54:55;26.55;;;10.02;;
22476;SDS011;65006;51.698;-0.292;2023-03-12T00:57:24;22.70;;;8.85;;
22476;SDS011;65006;51.698;-0.292;2023-03-12T00:59:54;20.20;;;8.32;;
22476;SDS011;65006;51.698;-0.292;2023-03-12T01:02:20;21.15;;;8.75;;
22476;SDS011;65006;51.698;-0.292;2023-03-12T01:05:00;20.98;;;9.07;;
22476;SDS011;65006;51.698;-0.292;2023-03-12T01:07:26;22.98;;;8.68;;
22476;SDS011;65006;51.698;-0.292;2023-03-12T01:09:54;27.15;;;9.32;;
22476;SDS011;65006;51.698;-0.292;2023-03-12T01:12:37;26.08;;;10.00;;
22476;SDS011;65006;51.698;-0.292;2023-03-12T01:17:34;28.95;;;9.90;;
22476;SDS011;65006;51.698;-0.292;2023-03-12T01:20:10;28.30;;;10.32;;
22476;SDS011;65006;51.698;-0.292;2023-03-12T01:22:36;31.77;;;11.27;;
22476;SDS011;65006;51.698;-0.292;2023-03-12T01:25:05;29.38;;;9.73;;
22476;SDS011;65006;51.698;-0.292;2023-03-12T01:27:32;29.13;;;10.10;;
22476;SDS011;65006;51.698;-0.292;2023-03-12T01:30:00;30.52;;;10.85;;
22476;SDS011;65006;51.698;-0.292;2023-03-12T01:32:32;35.33;;;10.00;;
22476;SDS011;65006;51.698;-0.292;2023-03-12T01:35:00;29.38;;;10.85;;
22476;SDS011;65006;51.698;-0.292;2023-03-12T01:37:35;26.80;;;9.82;;
22476;SDS011;65006;51.698;-0.292;2023-03-12T01:40:05;37.20;;;10.38;;
22476;SDS011;65006;51.698;-0.292;2023-03-12T01:42:31;30.88;;;10.18;;
22476;SDS011;65006;51.698;-0.292;2023-03-12T01:45:01;30.73;;;10.00;;
22476;SDS011;65006;51.698;-0.292;2023-03-12T01:47:29;30.90;;;9.50;;
22476;SDS011;65006;51.698;-0.292;2023-03-12T01:49:59;42.08;;;10.20;;
22476;SDS011;65006;51.698;-0.292;2023-03-12T01:52:27;37.33;;;8.95;;
22476;SDS011;65006;51.698;-0.292;2023-03-12T01:55:05;24.00;;;9.85;;
22476;SDS011;65006;51.698;-0.292;2023-03-12T01:57:35;34.45;;;10.20;;
22476;SDS011;65006;51.698;-0.292;2023-03-12T02:00:19;36.00;;;10.73;;
22476;SDS011;65006;51.698;-0.292;2023-03-12T02:02:50;42.17;;;11.68;;
22476;SDS011;65006;51.698;-0.292;2023-03-12T02:05:23;33.95;;;10.52;;
22476;SDS011;65006;51.698;-0.292;2023-03-12T02:07:51;29.65;;;10.68;;
22476;SDS011;65006;51.698;-0.292;2023-03-12T02:10:19;32.33;;;10.20;;
22476;SDS011;65006;51.698;-0.292;2023-03-12T02:12:46;33.35;;;10.55;;
22476;SDS011;65006;51.698;-0.292;2023-03-12T02:15:27;36.00;;;10.23;;
22476;SDS011;65006;51.698;-0.292;2023-03-12T02:18:14;34.17;;;9.82;;
22476;SDS011;65006;51.698;-0.292;2023-03-12T02:26:21;46.75;;;10.13;;
22476;SDS011;65006;51.698;-0.292;2023-03-12T02:28:50;29.83;;;9.63;;
22476;SDS011;65006;51.698;-0.292;2023-03-12T02:31:22;35.20;;;10.63;;
22476;SDS011;65006;51.698;-0.292;2023-03-12T02:33:50;36.85;;;11.02;;
22476;SDS011;65006;51.698;-0.292;2023-03-12T02:36:21;34.28;;;8.82;;
22476;SDS011;65006;51.698;-0.292;2023-03-12T02:38:48;30.63;;;9.30;;
22476;SDS011;65006;51.698;-0.292;2023-03-12T02:41:23;28.63;;;8.85;;
22476;SDS011;65006;51.698;-0.292;2023-03-12T02:44:06;31.75;;;8.73;;
22476;SDS011;65006;51.698;-0.292;2023-03-12T02:46:45;31.35;;;8.35;;
22476;SDS011;65006;51.698;-0.292;2023-03-12T02:49:27;37.13;;;8.77;;
22476;SDS011;65006;51.698;-0.292;2023-03-12T02:51:55;27.67;;;8.15;;
22476;SDS011;65006;51.698;-0.292;2023-03-12T02:57:00;39.10;;;8.55;;
22476;SDS011;65006;51.698;-0.292;2023-03-12T02:59:27;37.17;;;8.80;;
22476;SDS011;65006;51.698;-0.292;2023-03-12T03:01:56;52.88;;;10.35;;
22476;SDS011;65006;51.698;-0.292;2023-03-12T03:04:22;27.38;;;7.72;;
22476;SDS011;65006;51.698;-0.292;2023-03-12T03:06:49;28.75;;;8.23;;
22476;SDS011;65006;51.698;-0.292;2023-03-12T03:09:16;40.80;;;7.43;;
22476;SDS011;65006;51.698;-0.292;2023-03-12T03:11:45;31.40;;;8.27;;
22476;SDS011;65006;51.698;-0.292;2023-03-12T03:14:23;40.63;;;8.52;;
22476;SDS011;65006;51.698;-0.292;2023-03-12T03:16:50;34.17;;;7.43;;
22476;SDS011;65006;51.698;-0.292;2023-03-12T03:19:17;31.92;;;7.45;;
22476;SDS011;65006;51.698;-0.292;2023-03-12T03:21:43;36.83;;;8.70;;
22476;SDS011;65006;51.698;-0.292;2023-03-12T03:24:09;27.98;;;7.13;;
22476;SDS011;65006;51.698;-0.292;2023-03-12T03:26:43;28.13;;;6.72;;
22476;SDS011;65006;51.698;-0.292;2023-03-12T03:29:19;36.63;;;6.63;;
22476;SDS011;65006;51.698;-0.292;2023-03-12T03:34:32;30.00;;;6.93;;
22476;SDS011;65006;51.698;-0.292;2023-03-12T03:37:08;30.10;;;6.57;;
22476;SDS011;65006;51.698;-0.292;2023-03-12T03:39:37;31.10;;;6.25;;
22476;SDS011;65006;51.698;-0.292;2023-03-12T03:42:08;33.47;;;6.05;;
22476;SDS011;65006;51.698;-0.292;2023-03-12T03:44:42;36.35;;;6.07;;
22476;SDS011;65006;51.698;-0.292;2023-03-12T03:47:10;31.77;;;6.15;;
22476;SDS011;65006;51.698;-0.292;2023-03-12T03:49:45;34.15;;;5.65;;
22476;SDS011;65006;51.698;-0.292;2023-03-12T03:52:13;28.20;;;5.90;;
22476;SDS011;65006;51.698;-0.292;2023-03-12T03:54:54;33.40;;;5.60;;
22476;SDS011;65006;51.698;-0.292;2023-03-12T03:57:41;48.42;;;4.95;;
22476;SDS011;65006;51.698;-0.292;2023-03-12T04:00:08;28.35;;;5.85;;
22476;SDS011;65006;51.698;-0.292;2023-03-12T04:02:38;28.60;;;4.45;;
22476;SDS011;65006;51.698;-0.292;2023-03-12T04:07:40;39.60;;;4.30;;
22476;SDS011;65006;51.698;-0.292;2023-03-12T04:10:08;25.85;;;4.70;;
22476;SDS011;65006;51.698;-0.292;2023-03-12T04:12:36;41.38;;;4.88;;
22476;SDS011;65006;51.698;-0.292;2023-03-12T04:15:06;36.78;;;5.30;;
22476;SDS011;65006;51.698;-0.292;2023-03-12T04:17:40;39.75;;;4.28;;
22476;SDS011;65006;51.698;-0.292;2023-03-12T04:20:22;53.63;;;5.60;;
22476;SDS011;65006;51.698;-0.292;2023-03-12T04:23:08;34.92;;;4.75;;
22476;SDS011;65006;51.698;-0.292;2023-03-12T04:25:37;37.88;;;5.43;;
22476;SDS011;65006;51.698;-0.292;2023-03-12T04:28:09;34.45;;;4.65;;
22476;SDS011;65006;51.698;-0.292;2023-03-12T04:30:36;35.50;;;4.55;;
22476;SDS011;65006;51.698;-0.292;2023-03-12T04:33:04;54.97;;;5.45;;
22476;SDS011;65006;51.698;-0.292;2023-03-12T04:35:32;35.97;;;5.00;;
22476;SDS011;65006;51.698;-0.292;2023-03-12T04:38:08;53.60;;;4.72;;
22476;SDS011;65006;51.698;-0.292;2023-03-12T04:40:40;41.40;;;4.38;;
22476;SDS011;65006;51.698;-0.292;2023-03-12T04:46:21;40.58;;;4.82;;
22476;SDS011;65006;51.698;-0.292;2023-03-12T04:48:49;31.45;;;4.10;;
22476;SDS011;65006;51.698;-0.292;2023-03-12T04:51:22;42.05;;;4.88;;
22476;SDS011;65006;51.698;-0.292;2023-03-12T04:53:50;37.30;;;4.68;;
22476;SDS011;65006;51.698;-0.292;2023-03-12T04:56:24;52.28;;;6.05;;
22476;SDS011;65006;51.698;-0.292;2023-03-12T04:58:52;50.42;;;5.07;;
22476;SDS011;65006;51.698;-0.292;2023-03-12T05:01:24;40.53;;;4.65;;
22476;SDS011;65006;51.698;-0.292;2023-03-12T05:04:11;58.65;;;6.95;;
22476;SDS011;65006;51.698;-0.292;2023-03-12T05:06:39;46.58;;;4.47;;
22476;SDS011;65006;51.698;-0.292;2023-03-12T05:11:57;39.13;;;4.47;;
22476;SDS011;65006;51.698;-0.292;2023-03-12T05:14:26;54.15;;;4.85;;
22476;SDS011;65006;51.698;-0.292;2023-03-12T05:16:53;58.83;;;5.93;;
22476;SDS011;65006;51.698;-0.292;2023-03-12T05:19:22;53.35;;;5.93;;
22476;SDS011;65006;51.698;-0.292;2023-03-12T05:21:53;66.00;;;6.32;;
22476;SDS011;65006;51.698;-0.292;2023-03-12T05:24:41;48.03;;;5.75;;
22476;SDS011;65006;51.698;-0.292;2023-03-12T05:27:07;75.30;;;5.53;;
22476;SDS011;65006;51.698;-0.292;2023-03-12T05:29:33;68.47;;;5.57;;
22476;SDS011;65006;51.698;-0.292;2023-03-12T05:34:32;44.53;;;6.22;;
22476;SDS011;65006;51.698;-0.292;2023-03-12T05:36:59;50.33;;;5.53;;
22476;SDS011;65006;51.698;-0.292;2023-03-12T05:39:33;57.20;;;5.60;;
22476;SDS011;65006;51.698;-0.292;2023-03-12T05:42:02;55.33;;;5.35;;
22476;SDS011;65006;51.698;-0.292;2023-03-12T05:44:30;61.20;;;5.43;;
22476;SDS011;65006;51.698;-0.292;2023-03-12T05:47:10;56.67;;;6.25;;
22476;SDS011;65006;51.698;-0.292;2023-03-12T05:49:41;51.13;;;4.93;;
22476;SDS011;65006;51.698;-0.292;2023-03-12T05:52:18;63.53;;;5.95;;
22476;SDS011;65006;51.698;-0.292;2023-03-12T05:54:51;39.97;;;4.55;;
22476;SDS011;65006;51.698;-0.292;2023-03-12T05:57:19;50.50;;;5.97;;
22476;SDS011;65006;51.698;-0.292;2023-03-12T05:59:45;66.43;;;5.75;;
22476;SDS011;65006;51.698;-0.292;2023-03-12T06:02:13;36.42;;;5.40;;
22476;SDS011;65006;51.698;-0.292;2023-03-12T06:04:43;35.40;;;4.93;;
22476;SDS011;65006;51.698;-0.292;2023-03-12T06:07:18;54.58;;;6.15;;
22476;SDS011;65006;51.698;-0.292;2023-03-12T06:09:45;53.25;;;4.90;;
22476;SDS011;65006;51.698;-0.292;2023-03-12T06:12:11;55.53;;;5.35;;
22476;SDS011;65006;51.698;-0.292;2023-03-12T06:14:39;41.55;;;5.65;;
22476;SDS011;65006;51.698;-0.292;2023-03-12T06:17:05;37.97;;;5.32;;
22476;SDS011;65006;51.698;-0.292;2023-03-12T06:19:32;59.75;;;6.40;;
22476;SDS011;65006;51.698;-0.292;2023-03-12T06:24:49;47.58;;;5.90;;
22476;SDS011;65006;51.698;-0.292;2023-03-12T06:27:36;60.47;;;5.60;;
22476;SDS011;65006;51.698;-0.292;2023-03-12T06:30:07;32.45;;;4.43;;
22476;SDS011;65006;51.698;-0.292;2023-03-12T06:32:38;29.92;;;4.97;;
22476;SDS011;65006;51.698;-0.292;2023-03-12T06:35:05;63.75;;;5.72;;
22476;SDS011;65006;51.698;-0.292;2023-03-12T06:37:33;50.15;;;6.32;;
22476;SDS011;65006;51.698;-0.292;2023-03-12T06:39:59;51.65;;;5.75;;
22476;SDS011;65006;51.698;-0.292;2023-03-12T06:42:46;39.08;;;5.05;;
22476;SDS011;65006;51.698;-0.292;2023-03-12T06:45:14;33.03;;;5.07;;
22476;SDS011;65006;51.698;-0.292;2023-03-12T06:47:42;49.90;;;6.18;;
22476;SDS011;65006;51.698;-0.292;2023-03-12T06:50:08;73.50;;;5.88;;
22476;SDS011;65006;51.698;-0.292;2023-03-12T06:52:34;53.28;;;6.55;;
22476;SDS011;65006;51.698;-0.292;2023-03-12T06:55:14;60.35;;;5.88;;
22476;SDS011;65006;51.698;-0.292;2023-03-12T06:58:00;52.05;;;5.57;;
22476;SDS011;65006;51.698;-0.292;2023-03-12T07:00:31;38.05;;;5.53;;
22476;SDS011;65006;51.698;-0.292;2023-03-12T07:03:01;49.92;;;5.80;;
22476;SDS011;65006;51.698;-0.292;2023-03-12T07:08:07;39.78;;;5.90;;
22476;SDS011;65006;51.698;-0.292;2023-03-12T07:10:39;57.15;;;6.10;;
22476;SDS011;65006;51.698;-0.292;2023-03-12T07:13:08;59.42;;;6.32;;
22476;SDS011;65006;51.698;-0.292;2023-03-12T07:15:44;56.80;;;5.65;;
22476;SDS011;65006;51.698;-0.292;2023-03-12T07:18:13;55.13;;;5.88;;
22476;SDS011;65006;51.698;-0.292;2023-03-12T07:20:46;56.92;;;6.13;;
22476;SDS011;65006;51.698;-0.292;2023-03-12T07:23:19;55.33;;;6.35;;
22476;SDS011;65006;51.698;-0.292;2023-03-12T07:25:56;57.38;;;6.00;;
22476;SDS011;65006;51.698;-0.292;2023-03-12T07:28:26;57.67;;;5.55;;
22476;SDS011;65006;51.698;-0.292;2023-03-12T07:31:03;43.83;;;5.90;;
22476;SDS011;65006;51.698;-0.292;2023-03-12T07:33:32;51.75;;;6.13;;
22476;SDS011;65006;51.698;-0.292;2023-03-12T07:36:03;36.63;;;5.13;;
22476;SDS011;65006;51.698;-0.292;2023-03-12T07:38:33;49.67;;;5.18;;
22476;SDS011;65006;51.698;-0.292;2023-03-12T07:41:15;56.00;;;5.63;;
22476;SDS011;65006;51.698;-0.292;2023-03-12T07:44:08;59.03;;;6.25;;
22476;SDS011;65006;51.698;-0.292;2023-03-12T09:56:26;23.23;;;3.75;;
22476;SDS011;65006;51.698;-0.292;2023-03-12T17:33:18;7.43;;;1.17;;
22476;SDS011;65006;51.698;-0.292;2023-03-12T18:59:31;9.40;;;2.45;;
22476;SDS011;65006;51.698;-0.292;2023-03-12T19:01:57;3.42;;;2.20;;
22476;SDS011;65006;51.698;-0.292;2023-03-12T19:04:23;10.23;;;2.50;;
22476;SDS011;65006;51.698;-0.292;2023-03-12T19:06:49;8.07;;;2.05;;
22476;SDS011;65006;51.698;-0.292;2023-03-12T19:09:15;14.73;;;2.55;;
22476;SDS011;65006;51.698;-0.292;2023-03-12T19:11:41;11.35;;;2.30;;
22476;SDS011;65006;51.698;-0.292;2023-03-12T19:14:07;6.93;;;1.95;;
22476;SDS011;65006;51.698;-0.292;2023-03-12T19:16:34;10.25;;;2.20;;
22476;SDS011;65006;51.698;-0.292;2023-03-12T19:19:00;8.05;;;2.00;;
22476;SDS011;65006;51.698;-0.292;2023-03-12T19:21:26;7.20;;;2.00;;
22476;SDS011;65006;51.698;-0.292;2023-03-12T19:23:52;10.40;;;2.10;;
22476;SDS011;65006;51.698;-0.292;2023-03-12T19:26:18;9.23;;;1.52;;
22476;SDS011;65006;51.698;-0.292;2023-03-12T19:28:44;10.63;;;2.03;;
22476;SDS011;65006;51.698;-0.292;2023-03-12T19:31:11;7.65;;;1.73;;
22476;SDS011;65006;51.698;-0.292;2023-03-12T19:33:39;13.07;;;2.08;;
22476;SDS011;65006;51.698;-0.292;2023-03-12T19:36:05;8.30;;;1.75;;
22476;SDS011;65006;51.698;-0.292;2023-03-12T19:38:31;15.63;;;2.60;;
22476;SDS011;65006;51.698;-0.292;2023-03-12T19:40:57;11.52;;;2.03;;
22476;SDS011;65006;51.698;-0.292;2023-03-12T19:43:24;19.70;;;2.15;;
22476;SDS011;65006;51.698;-0.292;2023-03-12T19:45:51;6.00;;;1.95;;
22476;SDS011;65006;51.698;-0.292;2023-03-12T19:48:31;12.20;;;1.85;;
22476;SDS011;65006;51.698;-0.292;2023-03-12T19:50:57;13.15;;;2.47;;
22476;SDS011;65006;51.698;-0.292;2023-03-12T19:53:28;11.23;;;1.90;;
22476;SDS011;65006;51.698;-0.292;2023-03-12T19:55:55;12.40;;;2.30;;
22476;SDS011;65006;51.698;-0.292;2023-03-12T19:58:21;6.80;;;1.60;;
22476;SDS011;65006;51.698;-0.292;2023-03-12T20:00:47;10.05;;;2.58;;
22476;SDS011;65006;51.698;-0.292;2023-03-12T20:03:16;8.02;;;2.00;;
22476;SDS011;65006;51.698;-0.292;2023-03-12T20:18:49;10.68;;;1.95;;
22476;SDS011;65006;51.698;-0.292;2023-03-12T20:21:31;10.80;;;2.20;;
22476;SDS011;65006;51.698;-0.292;2023-03-12T20:24:22;11.48;;;2.15;;
22476;SDS011;65006;51.698;-0.292;2023-03-12T20:26:48;7.32;;;1.95;;
22476;SDS011;65006;51.698;-0.292;2023-03-12T20:29:14;15.15;;;2.17;;
22476;SDS011;65006;51.698;-0.292;2023-03-12T20:31:41;9.45;;;2.08;;
22476;SDS011;65006;51.698;-0.292;2023-03-12T20:34:07;10.85;;;2.08;;
22476;SDS011;65006;51.698;-0.292;2023-03-12T20:36:39;9.68;;;1.90;;
22476;SDS011;65006;51.698;-0.292;2023-03-12T20:39:14;9.18;;;1.77;;
22476;SDS011;65006;51.698;-0.292;2023-03-12T20:41:40;11.18;;;1.95;;
22476;SDS011;65006;51.698;-0.292;2023-03-12T20:44:06;8.05;;;1.58;;
22476;SDS011;65006;51.698;-0.292;2023-03-12T20:46:32;5.88;;;1.70;;
22476;SDS011;65006;51.698;-0.292;2023-03-12T20:48:58;9.05;;;1.77;;
22476;SDS011;65006;51.698;-0.292;2023-03-12T20:51:24;9.48;;;1.38;;
22476;SDS011;65006;51.698;-0.292;2023-03-12T20:53:51;4.05;;;1.33;;
22476;SDS011;65006;51.698;-0.292;2023-03-12T20:56:20;5.28;;;1.50;;
22476;SDS011;65006;51.698;-0.292;2023-03-12T20:58:48;3.53;;;1.02;;
22476;SDS011;65006;51.698;-0.292;2023-03-12T21:01:16;6.43;;;1.40;;
22476;SDS011;65006;51.698;-0.292;2023-03-12T21:03:42;4.22;;;1.10;;
22476;SDS011;65006;51.698;-0.292;2023-03-12T21:06:08;2.55;;;1.02;;
22476;SDS011;65006;51.698;-0.292;2023-03-12T21:08:34;4.40;;;1.27;;
22476;SDS011;65006;51.698;-0.292;2023-03-12T21:11:00;5.13;;;1.00;;
22476;SDS011;65006;51.698;-0.292;2023-03-12T21:13:29;6.32;;;1.60;;
22476;SDS011;65006;51.698;-0.292;2023-03-12T21:15:55;5.28;;;1.23;;
22476;SDS011;65006;51.698;-0.292;2023-03-12T21:18:21;4.57;;;1.20;;
22476;SDS011;65006;51.698;-0.292;2023-03-12T21:20:49;3.95;;;1.10;;
22476;SDS011;65006;51.698;-0.292;2023-03-12T21:23:16;1.77;;;0.70;;
22476;SDS011;65006;51.698;-0.292;2023-03-12T21:25:42;5.60;;;1.00;;
22476;SDS011;65006;51.698;-0.292;2023-03-12T21:28:10;3.67;;;1.10;;
22476;SDS011;65006;51.698;-0.292;2023-03-12T21:30:36;1.10;;;0.80;;
22476;SDS011;65006;51.698;-0.292;2023-03-12T21:35:54;3.15;;;1.35;;
22476;SDS011;65006;51.698;-0.292;2023-03-12T21:38:30;2.80;;;1.17;;
22476;SDS011;65006;51.698;-0.292;2023-03-12T21:40:56;1.20;;;1.00;;
22476;SDS011;65006;51.698;-0.292;2023-03-12T21:43:23;2.60;;;0.85;;
22476;SDS011;65006;51.698;-0.292;2023-03-12T21:48:15;5.90;;;1.15;;
22476;SDS011;65006;51.698;-0.292;2023-03-12T21:50:41;1.23;;;0.80;;
22476;SDS011;65006;51.698;-0.292;2023-03-12T21:53:08;3.72;;;1.00;;
22476;SDS011;65006;51.698;-0.292;2023-03-12T21:55:54;1.60;;;1.00;;
22476;SDS011;65006;51.698;-0.292;2023-03-12T21:58:20;2.45;;;1.00;;
22476;SDS011;65006;51.698;-0.292;2023-03-12T22:00:47;3.58;;;1.13;;
22476;SDS011;65006;51.698;-0.292;2023-03-12T22:03:13;2.80;;;1.38;;
22476;SDS011;65006;51.698;-0.292;2023-03-12T22:05:40;1.52;;;1.00;;
22476;SDS011;65006;51.698;-0.292;2023-03-12T22:08:06;1.65;;;0.90;;
22476;SDS011;65006;51.698;-0.292;2023-03-12T22:10:32;1.55;;;0.90;;
22476;SDS011;65006;51.698;-0.292;2023-03-12T22:12:58;1.63;;;1.15;;
22476;SDS011;65006;51.698;-0.292;2023-03-12T22:15:24;2.20;;;0.95;;
22476;SDS011;65006;51.698;-0.292;2023-03-12T22:17:54;2.22;;;1.33;;
22476;SDS011;65006;51.698;-0.292;2023-03-12T22:20:20;2.53;;;1.00;;
